EW9034 Weather Reports


Display with metric or nautical units.
time (UTC)temp
F
wind
direction
speed
MPH
gust
MPH
rain 1hr
in
rain 24hr
in
rain mn
in
humidity
%
barometer
mb
20210928004511 74 267 10.0 16.0 0.00 0.00 0.00 35 1000.4
20210928003008 76 241 13.0 20.0 0.00 0.00 0.00 34 1000.1
20210928001514 77 255 15.0 23.0 0.00 0.00 0.00 31 999.9
20210928000014 78 260 16.0 23.0 0.00 0.00 0.00 30 1000.1
20210927234518 79 257 17.0 27.0 0.00 0.00 0.00 29 1000.4
20210927233041 80 233 19.0 28.0 0.00 0.00 0.00 30 1000.3
20210927231512 80 360 21.0 28.0 0.00 0.00 0.00 28 1000.3
20210927230004 80 248 19.0 27.0 0.00 0.00 0.00 29 999.7
20210927224513 79 252 17.0 23.0 0.00 0.00 0.00 29 1000.0
20210927223015 79 259 17.0 22.0 0.00 0.00 0.00 30 1000.2
20210927221503 79 253 15.0 21.0 0.00 0.00 0.00 30 1000.3
20210927220001 80 270 13.0 23.0 0.00 0.00 0.00 28 1000.2
20210927214643 82 264 15.0 25.0 0.00 0.00 0.00 27 1000.2
20210927213146 81 244 20.0 27.0 0.00 0.00 0.00 26 1000.0
20210927211715 82 231 19.0 25.0 0.00 0.00 0.00 27 1000.1
20210927210132 81 360 19.0 30.0 0.00 0.00 0.00 27 1000.5
20210927204632 82 234 17.0 25.0 0.00 0.00 0.00 28 1000.2
20210927203121 80 267 14.0 26.0 0.00 0.00 0.00 29 1000.4
20210927201613 80 246 14.0 23.0 0.00 0.00 0.00 28 1000.6
20210927200118 80 254 16.0 23.0 0.00 0.00 0.00 26 1000.6
20210927194759 82 222 16.0 25.0 0.00 0.00 0.00 25 1000.8
20210927193209 81 254 19.0 26.0 0.00 0.00 0.00 25 1000.9
20210927191608 80 360 15.0 24.0 0.00 0.00 0.00 25 1001.0
20210927190050 81 239 15.0 23.0 0.00 0.00 0.00 24 1001.1
20210927184615 80 244 16.0 27.0 0.00 0.00 0.00 26 1000.9
20210927183058 79 249 17.0 27.0 0.00 0.00 0.00 25 1001.2
20210927181605 79 213 15.0 27.0 0.00 0.00 0.00 26 1001.4
20210927180114 79 246 15.0 21.0 0.00 0.00 0.00 26 1001.4
20210927174541 78 257 15.0 23.0 0.00 0.00 0.00 26 1001.4
20210927173128 77 254 11.0 18.0 0.00 0.00 0.00 27 1001.8
20210927171606 76 209 13.0 18.0 0.00 0.00 0.00 28 1001.8
20210927170032 74 225 12.0 19.0 0.00 0.00 0.00 29 1002.0
20210927164528 73 219 12.0 19.0 0.00 0.00 0.00 32 1002.0
20210927163018 72 202 10.0 19.0 0.00 0.00 0.00 33 1002.1
20210927161553 71 237 10.0 16.0 0.00 0.00 0.00 31 1002.3
20210927160032 70 213 13.0 17.0 0.00 0.00 0.00 33 1002.3
20210927154518 69 208 12.0 19.0 0.00 0.00 0.00 33 1002.2
20210927153017 68 211 10.0 17.0 0.00 0.00 0.00 34 1002.2
20210927151501 66 225 9.0 17.0 0.00 0.00 0.00 38 1002.0
20210927150148 63 234 6.0 12.0 0.00 0.00 0.00 46 1001.9
20210927144627 59 224 7.0 11.0 0.00 0.00 0.00 51 1002.0
20210927143114 57 222 7.0 10.0 0.00 0.00 0.00 54 1002.1
20210927141604 55 238 7.0 11.0 0.00 0.00 0.00 57 1002.2
20210927140216 55 224 8.0 11.0 0.00 0.00 0.00 57 1002.0
20210927134636 53 223 8.0 14.0 0.00 0.00 0.00 58 1001.8
20210927133052 53 242 8.0 12.0 0.00 0.00 0.00 57 1001.8
20210927131540 55 259 9.0 12.0 0.00 0.00 0.00 55 1001.8
20210927130044 56 236 6.0 10.0 0.00 0.00 0.00 51 1001.6
20210927124556 57 243 5.0 10.0 0.00 0.00 0.00 48 1001.6
20210927123102 58 231 8.0 14.0 0.00 0.00 0.00 46 1001.3
20210927121633 56 211 7.0 12.0 0.00 0.00 0.00 47 1001.2
20210927120146 56 206 8.0 12.0 0.00 0.00 0.00 47 1001.3
20210927114536 56 205 8.0 11.0 0.00 0.00 0.00 49 1001.3
20210927113049 54 229 8.0 10.0 0.00 0.00 0.00 53 1001.3
20210927111607 50 221 4.0 8.0 0.00 0.00 0.00 62 1001.3
20210927110033 50 199 8.0 10.0 0.00 0.00 0.00 62 1001.5
20210927104538 48 203 5.0 8.0 0.00 0.00 0.00 64 1001.5
20210927103035 49 217 2.0 5.0 0.00 0.00 0.00 62 1001.6
20210927101527 50 207 3.0 6.0 0.00 0.00 0.00 59 1001.7
20210927100037 49 205 5.0 9.0 0.00 0.00 0.00 59 1001.6
20210927094521 50 225 2.0 8.0 0.00 0.00 0.00 65 1001.7
20210927093112 50 214 5.0 8.0 0.00 0.00 0.00 57 1001.7
20210927091547 50 210 7.0 8.0 0.00 0.00 0.00 57 1001.9
20210927090028 53 208 2.0 10.0 0.00 0.00 0.00 53 1002.0
20210927084509 54 219 8.0 12.0 0.00 0.00 0.00 52 1002.0
20210927083008 55 215 6.0 10.0 0.00 0.00 0.00 50 1002.0
20210927081511 56 250 6.0 11.0 0.00 0.00 0.00 51 1001.8
20210927080022 57 212 7.0 14.0 0.00 0.00 0.00 48 1001.5
20210927074509 58 196 9.0 15.0 0.00 0.00 0.00 47 1001.3
20210927073002 57 229 10.0 15.0 0.00 0.00 0.00 50 1001.4
20210927071640 56 213 8.0 11.0 0.00 0.00 0.00 49 1001.5
20210927070117 55 198 7.0 11.0 0.00 0.00 0.00 51 1001.6
20210927064724 58 212 7.0 10.0 0.00 0.00 0.00 49 1001.8
20210927063315 62 234 10.0 16.0 0.00 0.00 0.00 42 1001.7
20210927061634 58 246 9.0 17.0 0.00 0.00 0.00 47 1001.8
20210927060227 54 173 7.0 10.0 0.00 0.00 0.00 52 1001.7
20210927054548 56 223 2.0 8.0 0.00 0.00 0.00 49 1001.7
20210927053113 58 215 7.0 12.0 0.00 0.00 0.00 47 1001.5
20210927051546 60 234 6.0 10.0 0.00 0.00 0.00 46 1001.5
20210927050153 58 183 8.0 10.0 0.00 0.00 0.00 47 1001.7
20210927044618 60 248 10.0 14.0 0.00 0.00 0.00 45 1001.2
20210927043111 59 217 10.0 16.0 0.00 0.00 0.00 48 1001.4
20210927040115 57 232 9.0 11.0 0.00 0.00 0.00 51 1001.1
20210927034557 59 260 2.0 8.0 0.00 0.00 0.00 46 1001.2
20210927033050 61 244 1.0 3.0 0.00 0.00 0.00 46 1001.4
20210927031619 63 217 2.0 8.0 0.00 0.00 0.00 42 1001.1
20210927030054 64 234 7.0 14.0 0.00 0.00 0.00 39 1001.0
20210927024559 64 221 8.0 14.0 0.00 0.00 0.00 41 1000.8
20210927021507 67 243 11.0 16.0 0.00 0.00 0.00 35 1000.7
20210927014536 67 227 7.0 11.0 0.00 0.00 0.00 38 1000.1
20210927013033 67 238 6.0 10.0 0.00 0.00 0.00 38 1000.0
20210927011530 69 243 7.0 10.0 0.00 0.00 0.00 36 1000.0